Time;durP1;ratioP1;P1;durP2;ratioP2;P2;SDS_P1;SDS_P2;PMS_P1;PMS_P2;Temp;Humidity;BMP_temperature;BMP_pressure;BME280_temperature;BME280_humidity;BME280_pressure;Samples;Min_cycle;Max_cycle;Signal;HPM_P1;HPM_P2
2024/01/02 00:02:13;;;;;;;1.53;1.43;;;;;;;-143.84;59.16;45115.72;5049507;28;20441;-61
2024/01/02 00:04:40;;;;;;;1.90;1.80;;;;;;;-143.84;59.18;45113.81;5049590;28;20446;-61
2024/01/02 00:07:07;;;;;;;1.10;1.00;;;;;;;-143.84;58.10;45130.94;5049724;28;21141;-60
2024/01/02 00:09:34;;;;;;;1.50;1.40;;;;;;;-143.84;57.99;45129.03;5049476;28;20442;-60
2024/01/02 00:12:01;;;;;;;7.80;2.50;;;;;;;-143.84;57.68;45155.69;5049386;28;20476;-61
2024/01/02 00:14:30;;;;;;;1.90;1.50;;;;;;;-143.84;57.69;45157.59;5049792;28;20441;-61
2024/01/02 00:16:57;;;;;;;0.90;0.80;;;;;;;-143.84;57.99;45125.22;5049639;28;20445;-60
2024/01/02 00:19:24;;;;;;;1.73;1.63;;;;;;;-143.84;57.87;45142.38;5049484;28;20519;-60
2024/01/02 00:21:52;;;;;;;1.83;1.73;;;;;;;-143.84;57.17;45113.81;5049263;28;20449;-60
2024/01/02 00:24:19;;;;;;;1.30;1.10;;;;;;;-143.84;57.05;45111.91;5049754;28;20793;-60
2024/01/02 00:26:46;;;;;;;2.50;1.47;;;;;;;-143.84;56.77;45123.34;5049398;28;20437;-60
2024/01/02 00:29:14;;;;;;;3.47;1.80;;;;;;;-143.84;56.20;45123.34;5049185;28;20426;-60
2024/01/02 00:31:44;;;;;;;1.03;0.90;;;;;;;-143.84;56.00;45119.53;5049417;28;20442;-61
2024/01/02 00:34:12;;;;;;;1.10;0.90;;;;;;;-143.84;55.77;45125.22;5049755;28;20453;-60
2024/01/02 00:36:39;;;;;;;1.37;1.27;;;;;;;-143.84;55.59;45125.22;5049224;28;20449;-60
2024/01/02 00:39:06;;;;;;;1.33;1.23;;;;;;;-143.84;55.25;45132.84;5049091;28;20945;-60
2024/01/02 00:41:33;;;;;;;1.40;1.30;;;;;;;-143.84;54.47;45121.44;5049419;28;20447;-60
2024/01/02 00:44:00;;;;;;;3.67;1.40;;;;;;;-143.84;54.32;45140.47;5049414;28;20449;-60
2024/01/02 00:46:27;;;;;;;1.53;1.43;;;;;;;-143.84;54.38;45146.19;5048880;28;20434;-60
2024/01/02 00:48:56;;;;;;;1.70;1.50;;;;;;;-143.84;54.42;45100.47;5049408;28;20882;-60
2024/01/02 00:51:23;;;;;;;2.03;1.93;;;;;;;-143.84;54.40;45094.78;5049446;28;20507;-60
2024/01/02 00:53:50;;;;;;;2.17;2.07;;;;;;;-143.84;54.98;45111.91;5048973;28;20469;-60
2024/01/02 00:56:17;;;;;;;1.60;1.50;;;;;;;-143.84;55.26;45127.13;5049441;28;20425;-60
2024/01/02 00:58:44;;;;;;;4.13;3.23;;;;;;;-143.84;55.74;45148.09;5049218;28;20499;-60
2024/01/02 01:01:11;;;;;;;1.77;1.07;;;;;;;-143.84;55.74;45127.13;5049186;28;20451;-61
2024/01/02 01:03:39;;;;;;;1.60;1.00;;;;;;;-143.84;55.42;45119.53;5050859;28;20560;-60
2024/01/02 01:06:07;;;;;;;1.53;1.43;;;;;;;-143.84;56.00;45132.84;5052824;28;20434;-60
2024/01/02 01:08:34;;;;;;;2.40;1.40;;;;;;;-143.84;56.63;45134.75;5052935;28;20430;-60
2024/01/02 01:11:02;;;;;;;7.53;1.63;;;;;;;-143.84;56.78;45129.03;5052668;28;20491;-60
2024/01/02 01:13:29;;;;;;;1.97;1.10;;;;;;;-143.84;56.79;45142.38;5052622;28;20520;-60
2024/01/02 01:15:56;;;;;;;1.20;1.00;;;;;;;-143.84;57.13;45148.09;5052714;28;20437;-59
2024/01/02 01:18:23;;;;;;;1.57;1.47;;;;;;;-143.84;57.18;45125.22;5052343;28;20499;-60
2024/01/02 01:20:50;;;;;;;3.03;2.83;;;;;;;-143.84;57.34;45138.56;5052471;28;20495;-60
2024/01/02 01:23:18;;;;;;;1.70;1.43;;;;;;;-143.84;58.27;45115.72;5052521;28;20853;-61
2024/01/02 01:25:46;;;;;;;1.57;1.47;;;;;;;-143.84;58.37;45110.00;5052546;28;20434;-61
2024/01/02 01:28:13;;;;;;;3.40;1.80;;;;;;;-143.84;58.40;45134.75;5052355;28;21005;-60
2024/01/02 01:30:40;;;;;;;1.60;1.50;;;;;;;-143.84;58.70;45138.56;5052377;28;20934;-61
2024/01/02 01:33:09;;;;;;;5.13;1.70;;;;;;;-143.84;58.99;45125.22;5052483;28;20515;-61
2024/01/02 01:35:36;;;;;;;2.83;2.63;;;;;;;-143.84;59.69;45127.13;5052152;28;20503;-60
2024/01/02 01:38:03;;;;;;;4.63;1.80;;;;;;;-143.84;59.74;45132.84;5052058;28;20928;-61
2024/01/02 01:40:32;;;;;;;1.60;1.37;;;;;;;-143.84;59.98;45142.38;5052316;28;20464;-61
2024/01/02 01:42:59;;;;;;;1.30;0.60;;;;;;;-143.84;60.23;45151.91;5052533;28;20437;-60
2024/01/02 01:45:26;;;;;;;1.30;1.20;;;;;;;-143.84;60.01;45125.22;5052268;28;20520;-60
2024/01/02 01:47:53;;;;;;;5.00;1.90;;;;;;;-143.84;60.26;45129.03;5052610;28;20793;-60
2024/01/02 01:50:22;;;;;;;1.10;1.00;;;;;;;-143.84;60.41;45130.94;5051750;28;20445;-60
2024/01/02 01:52:49;;;;;;;2.50;1.50;;;;;;;-143.84;60.13;45119.53;5051653;28;20484;-60
2024/01/02 01:55:17;;;;;;;1.20;0.73;;;;;;;-143.84;60.20;45132.84;5051922;28;20847;-60
2024/01/02 01:57:46;;;;;;;3.53;2.10;;;;;;;-143.84;60.38;45148.09;5052205;28;20434;-61
2024/01/02 02:00:13;;;;;;;2.80;1.23;;;;;;;-143.84;60.66;45161.41;5051763;28;20445;-60
2024/01/02 02:02:42;;;;;;;1.70;1.60;;;;;;;-143.84;60.68;45151.91;5051711;28;20518;-60
2024/01/02 02:05:11;;;;;;;1.20;1.10;;;;;;;-143.84;61.01;45140.47;5051558;28;20426;-61
2024/01/02 02:07:40;;;;;;;11.93;1.80;;;;;;;-143.84;61.69;45129.03;5051899;28;20433;-60
2024/01/02 02:10:08;;;;;;;2.67;2.47;;;;;;;-143.84;61.46;45119.53;5051155;28;20446;-60
2024/01/02 02:12:36;;;;;;;0.90;0.70;;;;;;;-143.84;61.23;45134.75;5051147;28;20836;-60
2024/01/02 02:15:06;;;;;;;1.07;0.97;;;;;;;-143.84;60.67;45102.38;5050915;28;20511;-60
2024/01/02 02:17:33;;;;;;;3.60;1.80;;;;;;;-143.84;60.78;45113.81;5051201;28;20438;-60
2024/01/02 02:20:00;;;;;;;2.20;1.67;;;;;;;-143.84;61.17;45150.00;5051185;28;21007;-60
2024/01/02 02:22:34;;;;;;;4.40;1.37;;;;;;;-143.84;61.56;45140.47;5051318;28;20450;-61
2024/01/02 02:25:02;;;;;;;2.43;2.23;;;;;;;-143.84;61.66;45148.09;5051263;28;20434;-60
2024/01/02 02:27:30;;;;;;;1.40;1.30;;;;;;;-143.84;61.53;45115.72;5051764;28;20495;-60
2024/01/02 02:29:57;;;;;;;1.23;1.13;;;;;;;-143.84;62.02;45123.34;5051092;28;20844;-61
2024/01/02 02:32:24;;;;;;;1.90;1.80;;;;;;;-143.84;62.32;45129.03;5051719;28;20426;-61
2024/01/02 02:34:51;;;;;;;1.40;1.10;;;;;;;-143.84;62.29;45155.69;5051147;28;20472;-60
2024/01/02 02:37:18;;;;;;;1.80;1.70;;;;;;;-143.84;62.86;45140.47;5051284;28;20815;-60
2024/01/02 02:39:45;;;;;;;3.33;1.57;;;;;;;-143.84;62.88;45138.56;5051268;28;20471;-60
2024/01/02 02:42:14;;;;;;;2.93;2.73;;;;;;;-143.84;63.14;45127.13;5050843;28;20495;-61
2024/01/02 02:44:43;;;;;;;4.43;4.13;;;;;;;-143.84;63.49;45169.03;5050764;28;20500;-61
2024/01/02 02:47:10;;;;;;;1.57;1.47;;;;;;;-143.84;63.21;45136.66;5049197;28;20468;-60
2024/01/02 02:49:37;;;;;;;1.33;0.90;;;;;;;-143.84;63.90;45148.09;5049598;28;20478;-60
2024/01/02 02:52:05;;;;;;;2.97;1.80;;;;;;;-143.84;64.38;45153.81;5050190;28;20539;-61
2024/01/02 02:54:32;;;;;;;2.90;2.60;;;;;;;-143.84;64.49;45134.75;5049762;28;20534;-60
2024/01/02 02:56:59;;;;;;;2.13;1.10;;;;;;;-143.84;64.88;45136.66;5049960;28;20442;-60
2024/01/02 02:59:28;;;;;;;3.37;2.90;;;;;;;-143.84;65.53;45142.38;5050354;28;20857;-60
2024/01/02 03:01:55;;;;;;;3.00;1.70;;;;;;;-143.84;66.38;45121.44;5051204;28;20442;-60
2024/01/02 03:04:22;;;;;;;1.53;1.43;;;;;;;-143.84;66.37;45127.13;5050987;28;20454;-60
2024/01/02 03:06:49;;;;;;;2.30;2.10;;;;;;;-143.84;66.62;45155.69;5050512;28;20989;-60
2024/01/02 03:09:16;;;;;;;1.00;0.70;;;;;;;-143.84;67.09;45129.03;5050842;28;20433;-60
2024/01/02 03:11:44;;;;;;;2.20;2.00;;;;;;;-143.84;66.82;45134.75;5050453;28;20445;-61
2024/01/02 03:14:11;;;;;;;4.10;1.63;;;;;;;-143.84;66.59;45153.81;5050412;28;20568;-60
2024/01/02 03:16:40;;;;;;;0.90;0.70;;;;;;;-143.84;66.50;45140.47;5050193;28;20492;-60
2024/01/02 03:19:07;;;;;;;0.90;0.77;;;;;;;-143.84;66.47;45130.94;5050158;28;20546;-61
2024/01/02 03:21:34;;;;;;;1.33;1.23;;;;;;;-143.84;65.78;45148.09;5050363;28;20445;-60
2024/01/02 03:24:02;;;;;;;1.50;1.30;;;;;;;-143.84;65.82;45163.31;5050216;28;20442;-60
2024/01/02 03:26:29;;;;;;;0.80;0.60;;;;;;;-143.84;65.53;45132.84;5049789;28;20449;-61
2024/01/02 03:28:56;;;;;;;1.03;0.93;;;;;;;-143.84;65.32;45140.47;5050127;28;20450;-61
2024/01/02 03:31:23;;;;;;;1.63;1.53;;;;;;;-143.84;65.39;45129.03;5050027;28;20445;-60
2024/01/02 03:33:52;;;;;;;1.77;1.63;;;;;;;-143.84;65.39;45130.94;5050099;28;21018;-60
2024/01/02 03:36:20;;;;;;;1.10;1.00;;;;;;;-143.84;65.15;45121.44;5050196;28;20448;-60
2024/01/02 03:38:47;;;;;;;5.07;1.63;;;;;;;-143.84;64.70;45117.63;5049934;28;20840;-60
2024/01/02 03:41:14;;;;;;;1.80;1.50;;;;;;;-143.84;64.52;45132.84;5050176;28;20491;-60
2024/01/02 03:43:42;;;;;;;1.20;1.10;;;;;;;-143.84;64.28;45129.03;5049966;28;20951;-60
2024/01/02 03:46:09;;;;;;;3.73;1.90;;;;;;;-143.84;64.14;45151.91;5050230;28;20438;-60
2024/01/02 03:48:36;;;;;;;2.10;1.57;;;;;;;-143.84;63.73;45115.72;5049720;28;20438;-60
2024/01/02 03:51:05;;;;;;;1.10;0.80;;;;;;;-143.84;63.38;45121.44;5049946;28;20437;-60
2024/01/02 03:53:32;;;;;;;2.70;2.50;;;;;;;-143.84;63.24;45138.56;5050134;28;20914;-60
2024/01/02 03:56:00;;;;;;;4.83;3.53;;;;;;;-143.84;62.34;45138.56;5049842;28;20437;-60
2024/01/02 03:58:27;;;;;;;1.57;1.47;;;;;;;-143.84;62.33;45134.75;5049494;28;20441;-61
2024/01/02 04:00:55;;;;;;;1.00;0.90;;;;;;;-143.84;61.98;45127.13;5049580;28;20433;-60
2024/01/02 04:03:22;;;;;;;2.00;1.90;;;;;;;-143.84;61.66;45127.13;5049700;28;20446;-60
2024/01/02 04:05:50;;;;;;;1.03;0.93;;;;;;;-143.84;61.39;45117.63;5049616;28;20447;-60
2024/01/02 04:08:18;;;;;;;0.90;0.70;;;;;;;-143.84;61.52;45170.94;5049936;28;20433;-60
2024/01/02 04:10:46;;;;;;;0.90;0.70;;;;;;;-143.84;61.83;45123.34;5049925;28;20434;-61
2024/01/02 04:13:13;;;;;;;7.23;1.50;;;;;;;-143.84;62.39;45165.22;5049804;28;20485;-60
2024/01/02 04:15:40;;;;;;;0.80;0.60;;;;;;;-143.84;62.52;45140.47;5049746;28;20438;-60
2024/01/02 04:18:07;;;;;;;2.50;0.87;;;;;;;-143.84;63.31;45144.28;5049913;28;20932;-61
2024/01/02 04:20:34;;;;;;;1.03;0.87;;;;;;;-143.84;63.73;45140.47;5049616;28;20527;-60
2024/01/02 04:23:01;;;;;;;1.50;1.40;;;;;;;-143.84;64.74;45146.19;5049254;28;20495;-60
2024/01/02 04:25:30;;;;;;;3.57;1.50;;;;;;;-143.84;65.18;45136.66;5049924;28;20437;-60
2024/01/02 04:27:57;;;;;;;0.80;0.60;;;;;;;-143.84;65.54;45138.56;5049596;28;20844;-60
2024/01/02 04:30:25;;;;;;;2.27;1.60;;;;;;;-143.84;66.00;45153.81;5049906;28;20445;-60
2024/01/02 04:32:52;;;;;;;1.23;1.13;;;;;;;-143.84;66.33;45150.00;5049545;28;20520;-60
2024/01/02 04:35:19;;;;;;;3.43;1.27;;;;;;;-143.84;66.80;45140.47;5049663;28;20433;-61
2024/01/02 04:37:46;;;;;;;1.30;1.00;;;;;;;-143.84;66.70;45144.28;5049835;28;20450;-60
2024/01/02 04:40:13;;;;;;;1.20;0.93;;;;;;;-143.84;66.47;45151.91;5053447;28;20457;-60
2024/01/02 04:42:42;;;;;;;13.27;2.23;;;;;;;-143.84;66.73;45180.47;5053650;28;20437;-60
2024/01/02 04:45:10;;;;;;;0.90;0.60;;;;;;;-143.84;66.33;45157.59;5053384;28;20433;-59
2024/01/02 04:47:37;;;;;;;1.33;0.70;;;;;;;-143.84;66.03;45150.00;5053523;28;20437;-60
2024/01/02 04:50:05;;;;;;;1.30;0.83;;;;;;;-143.84;65.85;45138.56;5053769;28;20507;-61
2024/01/02 04:52:32;;;;;;;1.00;0.90;;;;;;;-143.84;65.93;45153.81;5053389;28;20515;-60
2024/01/02 04:55:00;;;;;;;1.20;0.97;;;;;;;-143.84;65.34;45129.03;5052700;28;20532;-60
2024/01/02 04:57:28;;;;;;;1.03;0.70;;;;;;;-143.84;65.61;45167.13;5053259;28;20444;-60
2024/01/02 04:59:56;;;;;;;1.50;1.37;;;;;;;-143.84;65.19;45134.75;5052938;28;20438;-61
2024/01/02 05:02:24;;;;;;;0.90;0.67;;;;;;;-143.84;64.51;45153.81;5052594;28;20452;-60
2024/01/02 05:04:51;;;;;;;1.67;0.93;;;;;;;-143.84;64.49;45138.56;5052930;28;20445;-60
2024/01/02 05:07:18;;;;;;;1.30;1.03;;;;;;;-143.84;64.52;45189.97;5052549;28;20487;-60
2024/01/02 05:09:45;;;;;;;0.90;0.73;;;;;;;-143.84;64.82;45134.75;5052970;28;20449;-60
2024/01/02 05:12:15;;;;;;;2.57;1.17;;;;;;;-143.84;66.01;45172.84;5052685;28;20970;-61
2024/01/02 05:14:42;;;;;;;0.80;0.60;;;;;;;-143.84;65.79;45172.84;5052702;28;20481;-60
2024/01/02 05:17:11;;;;;;;1.10;1.00;;;;;;;-143.84;66.03;45155.69;5053017;28;20931;-60
2024/01/02 05:19:38;;;;;;;0.80;0.50;;;;;;;-143.84;65.77;45167.13;5052310;28;20538;-60
2024/01/02 05:22:05;;;;;;;1.87;1.50;;;;;;;-143.84;65.98;45146.19;5052603;28;20950;-60
2024/01/02 05:24:32;;;;;;;1.00;0.90;;;;;;;-143.84;66.07;45163.31;5052714;28;20441;-60
2024/01/02 05:26:59;;;;;;;1.33;0.97;;;;;;;-143.84;66.86;45170.94;5052807;28;20442;-60
2024/01/02 05:29:27;;;;;;;1.00;0.90;;;;;;;-143.84;66.90;45159.50;5052611;28;20522;-60
2024/01/02 05:31:54;;;;;;;1.07;0.80;;;;;;;-143.84;67.05;45142.38;5052620;28;20484;-60
2024/01/02 05:34:22;;;;;;;0.90;0.80;;;;;;;-143.84;66.97;45148.09;5052521;28;20473;-60
2024/01/02 05:36:49;;;;;;;0.97;0.87;;;;;;;-143.84;67.10;45161.41;5052399;28;20515;-60
2024/01/02 05:39:16;;;;;;;2.00;1.90;;;;;;;-143.84;67.46;45142.38;5068019;28;20449;-60
2024/01/02 05:41:43;;;;;;;1.00;0.80;;;;;;;-143.84;67.64;45150.00;5072464;28;20494;-60
2024/01/02 05:44:11;;;;;;;1.13;1.03;;;;;;;-143.84;67.90;45151.91;5072330;28;20510;-60
2024/01/02 05:46:38;;;;;;;0.90;0.70;;;;;;;-143.84;68.22;45144.28;5072512;28;20442;-60
2024/01/02 05:49:05;;;;;;;1.83;1.27;;;;;;;-143.84;68.35;45150.00;5072064;28;20448;-61
2024/01/02 05:51:33;;;;;;;1.37;0.73;;;;;;;-143.84;68.83;45161.41;5072278;28;20866;-60
2024/01/02 05:54:00;;;;;;;1.40;1.30;;;;;;;-143.84;69.03;45144.28;5072057;28;20477;-60
2024/01/02 05:56:27;;;;;;;2.10;1.90;;;;;;;-143.84;69.92;45144.28;5072041;28;20482;-60
2024/01/02 05:58:55;;;;;;;1.27;0.70;;;;;;;-143.84;69.88;45140.47;5072007;28;20804;-60
2024/01/02 06:01:22;;;;;;;0.80;0.47;;;;;;;-143.84;69.94;45165.22;5072200;28;20441;-60
2024/01/02 06:03:49;;;;;;;2.60;0.87;;;;;;;-143.84;70.03;45150.00;5071536;28;20510;-60
2024/01/02 06:06:16;;;;;;;0.90;0.70;;;;;;;-143.84;69.69;45134.75;5071833;28;20955;-60
2024/01/02 06:08:45;;;;;;;1.50;1.40;;;;;;;-143.84;69.43;45148.09;5071409;28;20496;-59
2024/01/02 06:11:12;;;;;;;2.97;0.93;;;;;;;-143.84;69.17;45140.47;5071897;28;20528;-60
2024/01/02 06:13:39;;;;;;;1.30;1.10;;;;;;;-143.84;68.80;45144.28;5071498;28;20514;-60
2024/01/02 06:16:09;;;;;;;0.80;0.60;;;;;;;-143.84;69.01;45148.09;5071666;28;20432;-60
2024/01/02 06:18:36;;;;;;;0.80;0.40;;;;;;;-143.84;70.17;45134.75;5071144;28;20567;-59
2024/01/02 06:21:04;;;;;;;0.80;0.50;;;;;;;-143.84;72.95;45146.19;5071431;28;20473;-60
2024/01/02 06:23:32;;;;;;;0.80;0.60;;;;;;;-143.84;74.96;45151.91;5071268;28;20441;-60
2024/01/02 06:26:01;;;;;;;0.93;0.77;;;;;;;-143.84;76.34;45151.91;5071549;28;20441;-60
2024/01/02 06:28:28;;;;;;;2.13;0.77;;;;;;;-143.84;76.29;45150.00;5071414;28;20437;-60
2024/01/02 06:30:56;;;;;;;1.53;1.10;;;;;;;-143.84;77.33;45191.88;5071282;28;20448;-60
2024/01/02 06:33:24;;;;;;;1.10;0.83;;;;;;;-143.84;77.34;45148.09;5071364;28;20441;-60
2024/01/02 06:35:52;;;;;;;0.80;0.47;;;;;;;-143.84;78.23;45163.31;5070651;28;20524;-60
2024/01/02 06:38:19;;;;;;;1.57;0.57;;;;;;;-143.84;78.86;45169.03;5070965;28;20506;-60
2024/01/02 06:40:46;;;;;;;0.80;0.50;;;;;;;-143.84;79.92;45163.31;5071487;28;20478;-60
2024/01/02 06:43:15;;;;;;;4.80;1.03;;;;;;;-143.84;80.30;45151.91;5071188;28;20498;-60
2024/01/02 06:45:42;;;;;;;0.87;0.67;;;;;;;-143.84;82.10;45170.94;5071166;28;20931;-60
2024/01/02 06:48:09;;;;;;;1.33;1.10;;;;;;;-143.84;82.34;45151.91;5071235;28;20992;-59
2024/01/02 06:50:37;;;;;;;3.07;1.77;;;;;;;-143.84;82.49;45161.41;5070836;28;20506;-60
2024/01/02 06:53:04;;;;;;;0.80;0.50;;;;;;;-143.84;82.15;45144.28;5070783;28;20507;-60
2024/01/02 06:55:31;;;;;;;1.03;0.93;;;;;;;-143.84;82.00;45157.59;5071252;28;20548;-59
2024/01/02 06:57:59;;;;;;;1.00;0.90;;;;;;;-143.84;81.87;45165.22;5070999;28;20437;-60
2024/01/02 07:00:28;;;;;;;0.80;0.43;;;;;;;-143.84;81.84;45155.69;5070864;28;20437;-60
2024/01/02 07:02:56;;;;;;;1.30;0.90;;;;;;;-143.84;82.26;45146.19;5070366;28;20906;-60
2024/01/02 07:05:23;;;;;;;0.80;0.53;;;;;;;-143.84;83.00;45144.28;5070542;28;20475;-59
2024/01/02 07:07:50;;;;;;;0.80;0.60;;;;;;;-143.84;82.61;45146.19;5070468;28;20528;-59
2024/01/02 07:10:17;;;;;;;0.90;0.63;;;;;;;-143.84;82.88;45159.50;5070525;28;20483;-60
2024/01/02 07:12:44;;;;;;;0.90;0.70;;;;;;;-143.84;83.24;45176.66;5070405;28;20465;-61
2024/01/02 07:15:12;;;;;;;0.80;0.50;;;;;;;-143.84;83.90;45148.09;5070354;28;20494;-60
2024/01/02 07:17:41;;;;;;;0.90;0.70;;;;;;;-143.84;83.57;45161.41;5070061;28;20445;-61
2024/01/02 07:20:08;;;;;;;0.83;0.60;;;;;;;-143.84;83.12;45159.50;5070106;28;20545;-60
2024/01/02 07:22:36;;;;;;;0.80;0.40;;;;;;;-143.84;82.52;45155.69;5068620;28;20982;-59
2024/01/02 07:25:03;;;;;;;1.47;0.83;;;;;;;-143.84;81.98;45157.59;5068935;28;20429;-60
2024/01/02 07:27:30;;;;;;;0.90;0.80;;;;;;;-143.84;81.42;45167.13;5069398;28;20837;-59
2024/01/02 07:29:57;;;;;;;0.80;0.60;;;;;;;-143.84;80.89;45176.66;5069610;28;20445;-59
2024/01/02 07:32:24;;;;;;;0.80;0.60;;;;;;;-143.84;81.78;45151.91;5069501;28;20437;-59
2024/01/02 07:34:53;;;;;;;0.80;0.50;;;;;;;-143.84;82.18;45151.91;5069449;28;20530;-60
2024/01/02 07:37:20;;;;;;;0.87;0.60;;;;;;;-143.84;82.72;45178.56;5070458;28;20852;-60
2024/01/02 07:39:50;;;;;;;0.83;0.60;;;;;;;-143.84;83.25;45169.03;5070240;28;20464;-60
2024/01/02 07:42:17;;;;;;;0.80;0.60;;;;;;;-143.84;84.06;45169.03;5069741;28;20966;-60
2024/01/02 07:44:44;;;;;;;1.20;0.90;;;;;;;-143.84;84.15;45180.47;5070149;28;21029;-60
2024/01/02 07:47:11;;;;;;;0.80;0.50;;;;;;;-143.84;83.92;45176.66;5069891;28;20436;-60
2024/01/02 07:49:39;;;;;;;1.27;1.17;;;;;;;-143.84;84.43;45180.47;5069893;28;20451;-60
2024/01/02 07:52:07;;;;;;;0.80;0.47;;;;;;;-143.84;84.75;45159.50;5070036;28;20862;-60
2024/01/02 07:54:38;;;;;;;1.33;1.23;;;;;;;-143.84;85.17;45148.09;5070124;28;21102;-59
2024/01/02 07:57:05;;;;;;;0.80;0.43;;;;;;;-143.84;85.27;45155.69;5069865;28;20444;-59
2024/01/02 07:59:33;;;;;;;0.80;0.40;;;;;;;-143.84;85.87;45176.66;5070166;28;20510;-60
2024/01/02 08:02:00;;;;;;;0.80;0.50;;;;;;;-143.84;86.61;45167.13;5069686;28;20851;-60
2024/01/02 08:04:29;;;;;;;3.23;0.67;;;;;;;-143.84;86.91;45172.84;5069567;28;20444;-60
2024/01/02 08:06:57;;;;;;;1.17;1.07;;;;;;;-143.84;87.01;45174.75;5069855;28;21262;-59
2024/01/02 08:09:27;;;;;;;1.00;0.80;;;;;;;-143.84;87.11;45167.13;5069928;28;20869;-59
2024/01/02 08:11:55;;;;;;;0.80;0.60;;;;;;;-143.84;86.77;45169.03;5069534;28;20943;-60
2024/01/02 08:14:23;;;;;;;0.80;0.50;;;;;;;-143.84;87.57;45165.22;5073052;28;20530;-60
2024/01/02 08:16:50;;;;;;;0.93;0.83;;;;;;;-143.84;87.58;45170.94;5073237;28;20452;-61
2024/01/02 08:19:17;;;;;;;0.80;0.50;;;;;;;-143.84;87.87;45161.41;5073741;28;20903;-60
2024/01/02 08:21:44;;;;;;;0.87;0.63;;;;;;;-143.84;88.16;45193.78;5073480;28;20440;-60
2024/01/02 08:24:12;;;;;;;0.80;0.63;;;;;;;-143.84;88.49;45167.13;5074140;28;20879;-59
2024/01/02 08:26:40;;;;;;;0.80;0.70;;;;;;;-143.84;88.57;45155.69;5073658;28;20436;-60
2024/01/02 08:29:08;;;;;;;0.80;0.60;;;;;;;-143.84;88.44;45170.94;5073710;28;20493;-60
2024/01/02 08:31:35;;;;;;;0.80;0.40;;;;;;;-143.84;88.89;45174.75;5074087;28;21107;-60
2024/01/02 08:34:04;;;;;;;0.87;0.67;;;;;;;-143.84;89.29;45199.50;5073392;28;20528;-60
2024/01/02 08:36:31;;;;;;;0.80;0.70;;;;;;;-143.84;89.50;45155.69;5073652;28;20498;-59
2024/01/02 08:38:58;;;;;;;0.97;0.80;;;;;;;-143.84;89.91;45188.06;5073245;28;20460;-60
2024/01/02 08:41:25;;;;;;;0.93;0.60;;;;;;;-143.84;90.82;45157.59;5073201;28;20445;-59
2024/01/02 08:43:54;;;;;;;0.90;0.80;;;;;;;-143.84;91.29;45180.47;5073128;28;20455;-60
2024/01/02 08:46:21;;;;;;;0.80;0.50;;;;;;;-143.84;92.36;45170.94;5073136;28;20441;-60
2024/01/02 08:48:48;;;;;;;1.37;1.10;;;;;;;-143.84;92.40;45180.47;5072853;28;20445;-60
2024/01/02 08:51:15;;;;;;;0.93;0.77;;;;;;;-143.84;92.89;45170.94;5073034;28;20433;-60
2024/01/02 08:53:41;;;;;;;0.80;0.60;;;;;;;-143.84;92.88;45195.69;5073468;28;20854;-60
2024/01/02 08:56:09;;;;;;;1.40;1.10;;;;;;;-143.84;93.52;45155.69;5072791;28;20482;-60
2024/01/02 08:58:37;;;;;;;1.10;0.80;;;;;;;-143.84;93.66;45176.66;5073073;28;20441;-60
2024/01/02 09:01:06;;;;;;;1.10;0.97;;;;;;;-143.84;94.17;45172.84;5072894;28;20441;-60
2024/01/02 09:03:33;;;;;;;0.80;0.67;;;;;;;-143.84;94.69;45151.91;5072956;28;20436;-59
2024/01/02 09:06:00;;;;;;;0.90;0.70;;;;;;;-143.84;95.02;45132.84;5072856;28;20441;-60
2024/01/02 09:08:27;;;;;;;0.80;0.50;;;;;;;-143.84;95.53;45132.84;5073000;28;20444;-59
2024/01/02 09:10:56;;;;;;;1.23;1.10;;;;;;;-143.84;95.98;45170.94;5072833;28;20487;-60
2024/01/02 09:13:23;;;;;;;0.90;0.63;;;;;;;-143.84;96.15;45167.13;5072303;28;20449;-60
2024/01/02 09:15:50;;;;;;;1.00;0.90;;;;;;;-143.84;96.80;45161.41;5072432;28;20538;-60
2024/01/02 09:18:19;;;;;;;0.80;0.60;;;;;;;-143.84;97.27;45174.75;5072170;28;20444;-60
2024/01/02 09:20:47;;;;;;;0.80;0.50;;;;;;;-143.84;97.51;45150.00;5072338;28;20447;-60
2024/01/02 09:23:14;;;;;;;0.80;0.50;;;;;;;-143.84;97.70;45161.41;5072273;28;20638;-59
2024/01/02 09:25:46;;;;;;;1.27;1.17;;;;;;;-143.84;98.31;45193.78;5071638;28;20443;-60
2024/01/02 09:28:14;;;;;;;1.53;1.07;;;;;;;-143.84;98.09;45178.56;5072418;28;20441;-59
2024/01/02 09:30:43;;;;;;;0.80;0.63;;;;;;;-143.84;98.38;45161.41;5072926;28;20443;-59
2024/01/02 09:33:11;;;;;;;0.80;0.50;;;;;;;-143.84;98.27;45153.81;5072706;28;21195;-59
2024/01/02 09:35:39;;;;;;;1.00;0.90;;;;;;;-143.84;97.92;45148.09;5072512;28;21320;-60
2024/01/02 09:38:08;;;;;;;1.10;0.60;;;;;;;-143.84;97.47;45165.22;5072596;28;20529;-59
2024/01/02 09:40:49;;;;;;;0.80;0.43;;;;;;;-143.84;97.11;45174.75;5071974;28;20460;-59
2024/01/02 09:43:33;;;;;;;0.80;0.50;;;;;;;-143.84;97.64;45163.31;5072167;28;20441;-59
2024/01/02 09:46:10;;;;;;;0.80;0.50;;;;;;;-143.84;97.76;45167.13;5072261;28;20456;-60
2024/01/02 09:48:51;;;;;;;1.43;0.97;;;;;;;-143.84;96.72;45174.75;5072445;28;20452;-60
2024/01/02 09:51:30;;;;;;;0.80;0.50;;;;;;;-143.84;97.02;45165.22;5071922;28;20440;-60
2024/01/02 09:54:23;;;;;;;0.80;0.60;;;;;;;-143.84;96.83;45172.84;5071957;28;20456;-60
2024/01/02 09:57:00;;;;;;;0.80;0.40;;;;;;;-143.84;96.46;45178.56;5071796;28;20479;-59
2024/01/02 09:59:40;;;;;;;1.43;0.70;;;;;;;-143.84;96.02;45174.75;5072122;28;20436;-60
2024/01/02 10:02:24;;;;;;;0.80;0.50;;;;;;;-143.84;95.95;45193.78;5071818;28;20498;-60
2024/01/02 10:05:08;;;;;;;0.80;0.40;;;;;;;-143.84;95.90;45169.03;5072070;28;20466;-60
2024/01/02 10:07:59;;;;;;;0.80;0.50;;;;;;;-143.84;95.61;45188.06;5071818;28;20451;-60
2024/01/02 10:10:36;;;;;;;0.80;0.67;;;;;;;-143.84;96.43;45151.91;5071719;28;21057;-60
2024/01/02 10:13:24;;;;;;;0.80;0.50;;;;;;;-143.84;96.14;45180.47;5071860;28;20440;-60
2024/01/02 10:16:04;;;;;;;0.80;0.50;;;;;;;-143.84;95.55;45180.47;5071625;28;20979;-60
2024/01/02 10:18:52;;;;;;;0.80;0.50;;;;;;;-143.84;95.76;45178.56;5071415;28;20484;-60
2024/01/02 10:21:29;;;;;;;0.80;0.40;;;;;;;-143.84;96.47;45188.06;5071561;28;20444;-60
2024/01/02 10:24:08;;;;;;;0.80;0.50;;;;;;;-143.84;96.38;45159.50;5071418;28;20490;-60
2024/01/02 10:26:40;;;;;;;0.80;0.40;;;;;;;-143.84;96.12;45174.75;5071471;28;20935;-59
2024/01/02 10:29:14;;;;;;;0.80;0.40;;;;;;;-143.84;96.52;45186.16;5071028;28;20502;-60
2024/01/02 10:31:55;;;;;;;0.80;0.50;;;;;;;-143.84;96.42;45176.66;5071505;28;20435;-60
2024/01/02 10:34:31;;;;;;;2.40;1.80;;;;;;;-143.84;96.44;45249.00;5071440;28;20433;-60
2024/01/02 10:37:03;;;;;;;0.80;0.50;;;;;;;-143.84;96.64;45176.66;5070640;28;20475;-60
2024/01/02 10:39:39;;;;;;;0.87;0.70;;;;;;;-143.84;95.64;45180.47;5071285;28;20460;-60
2024/01/02 10:42:22;;;;;;;0.80;0.47;;;;;;;-143.84;95.95;45159.50;5071434;28;20441;-60
2024/01/02 10:45:00;;;;;;;0.80;0.60;;;;;;;-143.84;95.93;45184.25;5071219;28;20525;-60
2024/01/02 10:47:38;;;;;;;0.80;0.50;;;;;;;-143.84;95.87;45193.78;5071023;28;20436;-60
2024/01/02 10:50:12;;;;;;;1.20;0.60;;;;;;;-143.84;95.76;45163.31;5070777;28;20851;-60
2024/01/02 10:52:53;;;;;;;0.80;0.50;;;;;;;-143.84;95.73;45170.94;5070889;28;20446;-59
2024/01/02 10:55:28;;;;;;;1.40;0.87;;;;;;;-143.84;95.56;45184.25;5070943;28;20838;-60
2024/01/02 10:58:03;;;;;;;0.80;0.40;;;;;;;-143.84;95.42;45161.41;5070544;28;20455;-60
2024/01/02 11:00:41;;;;;;;0.80;0.50;;;;;;;-143.84;95.54;45172.84;5070551;28;20506;-60
2024/01/02 11:03:11;;;;;;;0.80;0.60;;;;;;;-143.84;95.06;45165.22;5069620;28;20425;-60
2024/01/02 11:05:40;;;;;;;0.80;0.50;;;;;;;-143.84;95.36;45170.94;5070606;28;20499;-60
2024/01/02 11:08:14;;;;;;;0.80;0.60;;;;;;;-143.84;95.37;45167.13;5070348;28;20949;-60
2024/01/02 11:10:53;;;;;;;0.80;0.40;;;;;;;-143.84;95.96;45163.31;5070538;28;20530;-60
2024/01/02 11:13:21;;;;;;;0.80;0.50;;;;;;;-143.84;95.76;45193.78;5070624;28;20436;-60
2024/01/02 11:15:49;;;;;;;0.80;0.50;;;;;;;-143.84;96.84;45184.25;5070365;28;20553;-60
2024/01/02 11:18:18;;;;;;;0.80;0.60;;;;;;;-143.84;96.88;45174.75;5069962;28;20446;-60
2024/01/02 11:20:54;;;;;;;0.80;0.50;;;;;;;-143.84;96.83;45193.78;5070063;28;20463;-60
2024/01/02 11:23:27;;;;;;;0.80;0.60;;;;;;;-143.84;97.02;45188.06;5070127;28;20432;-60
2024/01/02 11:26:02;;;;;;;0.80;0.50;;;;;;;-143.84;97.64;45176.66;5070206;28;20831;-60